createdAt,value
2022-10-31T00:01:01.304Z,1.00
2022-10-31T00:03:28.646Z,1.00
2022-10-31T00:05:55.478Z,1.00
2022-10-31T00:08:22.766Z,1.00
2022-10-31T00:10:49.657Z,1.00
2022-10-31T00:13:16.726Z,1.00
2022-10-31T00:15:45.562Z,1.00
2022-10-31T00:18:12.468Z,1.00
2022-10-31T00:20:40.199Z,1.00
2022-10-31T00:23:07.571Z,1.00
2022-10-31T00:25:36.818Z,1.00
2022-10-31T00:28:04.134Z,1.00
2022-10-31T00:30:31.709Z,1.00
2022-10-31T00:33:00.210Z,1.00
2022-10-31T00:35:27.506Z,1.00
2022-10-31T00:37:54.321Z,1.00
2022-10-31T00:40:21.463Z,1.00
2022-10-31T00:42:48.290Z,1.00
2022-10-31T00:45:15.596Z,1.00
2022-10-31T00:47:42.419Z,1.00
2022-10-31T00:50:10.775Z,1.00
2022-10-31T00:52:37.591Z,1.00
2022-10-31T00:55:05.094Z,1.00
2022-10-31T00:57:31.942Z,1.00
2022-10-31T00:59:59.083Z,1.00
2022-10-31T01:02:26.296Z,1.00
2022-10-31T01:04:53.686Z,1.00
2022-10-31T01:07:21.919Z,1.00
2022-10-31T01:09:49.244Z,1.00
2022-10-31T01:12:16.159Z,1.00
2022-10-31T01:14:46.089Z,1.00
2022-10-31T01:17:13.082Z,1.00
2022-10-31T01:19:40.671Z,1.00
2022-10-31T01:22:07.503Z,1.00
2022-10-31T01:24:36.045Z,1.00
2022-10-31T01:27:03.123Z,1.00
2022-10-31T01:29:30.303Z,1.00
2022-10-31T01:31:57.140Z,1.00
2022-10-31T01:34:24.300Z,1.00
2022-10-31T01:36:52.211Z,1.00
2022-10-31T01:39:23.339Z,1.00
2022-10-31T01:41:53.528Z,1.00
2022-10-31T01:44:54.125Z,1.00
2022-10-31T01:47:28.724Z,1.00
2022-10-31T01:49:58.592Z,1.00
2022-10-31T01:52:28.683Z,1.00
2022-10-31T01:55:00.105Z,1.00
2022-10-31T01:57:30.093Z,1.00
2022-10-31T02:00:01.709Z,1.00
2022-10-31T02:02:31.185Z,1.00
2022-10-31T02:05:00.343Z,1.00
2022-10-31T02:07:32.706Z,1.00
2022-10-31T02:10:01.262Z,1.00
2022-10-31T02:12:31.159Z,1.00
2022-10-31T02:14:59.086Z,1.00
2022-10-31T02:17:26.176Z,1.00
2022-10-31T02:19:57.769Z,1.00
2022-10-31T02:22:29.009Z,1.00
2022-10-31T02:25:24.735Z,1.00
2022-10-31T02:28:12.309Z,1.00
2022-10-31T02:30:47.239Z,1.00
2022-10-31T02:33:24.442Z,1.00
2022-10-31T02:35:58.288Z,1.00
2022-10-31T02:38:37.525Z,1.00
2022-10-31T02:41:11.137Z,1.00
2022-10-31T02:43:44.665Z,1.00
2022-10-31T02:46:18.956Z,1.00
2022-10-31T02:48:49.370Z,1.00
2022-10-31T02:51:17.453Z,1.00
2022-10-31T02:53:44.755Z,1.00
2022-10-31T02:56:14.107Z,1.00
2022-10-31T02:58:45.040Z,1.00
2022-10-31T03:01:27.767Z,1.00
2022-10-31T03:04:24.531Z,1.00
2022-10-31T03:06:59.713Z,1.00
2022-10-31T03:09:33.784Z,1.00
2022-10-31T03:12:09.434Z,1.00
2022-10-31T03:14:42.278Z,1.00
2022-10-31T03:17:15.450Z,1.00
2022-10-31T03:19:47.190Z,1.00
2022-10-31T03:22:20.309Z,1.00
2022-10-31T03:24:52.207Z,1.00
2022-10-31T03:27:23.032Z,1.00
2022-10-31T03:29:51.907Z,1.00
2022-10-31T03:32:23.385Z,1.00
2022-10-31T03:34:54.318Z,1.00
2022-10-31T03:37:26.411Z,1.00
2022-10-31T03:39:56.311Z,1.00
2022-10-31T03:46:30.712Z,1.00
2022-10-31T03:48:59.238Z,1.00
2022-10-31T03:51:32.394Z,1.00
2022-10-31T03:54:05.115Z,1.00
2022-10-31T03:56:35.919Z,1.00
2022-10-31T03:59:07.219Z,1.00
2022-10-31T04:01:40.247Z,1.00
2022-10-31T04:04:08.813Z,1.00
2022-10-31T04:06:36.986Z,1.00
2022-10-31T04:09:07.588Z,1.00
2022-10-31T04:11:41.827Z,1.00
2022-10-31T04:14:10.335Z,1.00
2022-10-31T04:16:37.561Z,1.00
2022-10-31T04:19:05.064Z,1.00
2022-10-31T04:21:32.167Z,1.00
2022-10-31T04:23:59.459Z,1.00
2022-10-31T04:26:27.734Z,1.00
2022-10-31T04:28:54.937Z,1.00
2022-10-31T04:31:21.911Z,1.00
2022-10-31T04:33:49.227Z,1.60
2022-10-31T04:36:16.131Z,6.30
2022-10-31T04:38:43.372Z,10.40
2022-10-31T04:41:10.338Z,10.80
2022-10-31T04:43:39.013Z,15.60
2022-10-31T04:46:06.171Z,22.40
2022-10-31T04:48:33.494Z,25.30
2022-10-31T04:51:01.453Z,24.70
2022-10-31T04:53:28.904Z,28.70
2022-10-31T04:55:55.903Z,33.00
2022-10-31T04:58:23.203Z,35.60
2022-10-31T05:00:54.224Z,39.10
2022-10-31T05:03:21.576Z,38.00
2022-10-31T05:05:48.853Z,44.40
2022-10-31T05:08:16.267Z,56.10
2022-10-31T05:10:43.259Z,64.40
2022-10-31T05:13:10.832Z,74.00
2022-10-31T05:15:37.803Z,79.10
2022-10-31T05:18:06.308Z,90.10
2022-10-31T05:20:33.697Z,92.90
2022-10-31T05:23:01.307Z,99.90
2022-10-31T05:25:30.290Z,99.90
2022-10-31T05:27:58.273Z,99.90
2022-10-31T05:30:28.558Z,99.90
2022-10-31T05:32:55.829Z,95.20
2022-10-31T05:35:25.891Z,97.40
2022-10-31T05:37:53.270Z,97.50
2022-10-31T05:40:21.718Z,99.90
2022-10-31T05:42:52.217Z,99.90
2022-10-31T05:45:20.280Z,99.90
2022-10-31T05:47:52.458Z,99.90
2022-10-31T05:50:19.382Z,99.90
2022-10-31T05:52:48.004Z,99.90
2022-10-31T05:55:15.188Z,99.90
2022-10-31T05:57:42.384Z,99.90
2022-10-31T06:00:10.345Z,99.90
2022-10-31T06:02:37.231Z,99.90
2022-10-31T06:05:04.757Z,99.90
2022-10-31T06:07:35.061Z,99.90
2022-10-31T06:10:05.647Z,99.90
2022-10-31T06:12:33.459Z,99.90
2022-10-31T06:15:00.301Z,99.90
2022-10-31T06:17:27.636Z,99.90
2022-10-31T06:19:54.474Z,99.90
2022-10-31T06:22:21.350Z,99.90
2022-10-31T06:24:48.245Z,99.90
2022-10-31T06:27:17.005Z,99.90
2022-10-31T06:29:43.925Z,99.90
2022-10-31T06:32:12.753Z,99.90
2022-10-31T06:34:39.805Z,99.90
2022-10-31T06:37:08.087Z,99.90
2022-10-31T06:39:35.258Z,99.90
2022-10-31T06:42:02.808Z,99.90
2022-10-31T06:44:31.458Z,99.90
2022-10-31T06:46:58.804Z,99.90
2022-10-31T06:49:25.721Z,99.90
2022-10-31T06:51:53.031Z,99.90
2022-10-31T06:54:20.060Z,99.90
2022-10-31T06:56:48.417Z,99.90
2022-10-31T06:59:15.739Z,99.90
2022-10-31T07:01:44.618Z,99.90
2022-10-31T07:04:12.340Z,99.90
2022-10-31T07:06:39.384Z,99.90
2022-10-31T07:09:06.656Z,99.90
2022-10-31T07:11:34.049Z,99.90
2022-10-31T07:14:00.963Z,99.90
2022-10-31T07:16:28.306Z,99.90
2022-10-31T07:18:56.513Z,99.90
2022-10-31T07:21:23.761Z,99.90
2022-10-31T07:23:50.672Z,99.90
2022-10-31T07:26:17.963Z,99.90
2022-10-31T07:28:46.557Z,99.90
2022-10-31T07:31:13.708Z,99.90
2022-10-31T07:33:40.596Z,99.90
2022-10-31T07:36:09.602Z,99.90
2022-10-31T07:38:36.478Z,99.90
2022-10-31T07:41:03.404Z,99.90
2022-10-31T07:43:30.281Z,99.90
2022-10-31T07:45:57.567Z,99.90
2022-10-31T07:48:24.445Z,99.90
2022-10-31T07:50:51.416Z,99.90
2022-10-31T07:53:20.173Z,99.90
2022-10-31T07:55:47.073Z,99.90
2022-10-31T07:58:15.736Z,99.90
2022-10-31T08:00:44.800Z,99.90
2022-10-31T08:03:13.428Z,99.90
2022-10-31T08:05:42.058Z,99.90
2022-10-31T08:08:09.779Z,99.90
2022-10-31T08:10:38.463Z,99.90
2022-10-31T08:13:07.910Z,99.90
2022-10-31T08:15:38.026Z,99.90
2022-10-31T08:18:05.986Z,99.90
2022-10-31T08:20:33.146Z,99.90
2022-10-31T08:23:02.188Z,99.90
2022-10-31T08:25:33.741Z,99.90
2022-10-31T08:28:06.579Z,99.90
2022-10-31T08:30:35.725Z,99.90
2022-10-31T08:33:04.439Z,99.90
2022-10-31T08:35:32.012Z,99.90
2022-10-31T08:38:00.289Z,99.90
2022-10-31T08:40:29.101Z,99.90
2022-10-31T08:43:00.715Z,99.90
2022-10-31T08:45:29.868Z,99.90
2022-10-31T08:48:01.751Z,99.90
2022-10-31T08:50:30.671Z,99.90
2022-10-31T08:53:06.126Z,99.90
2022-10-31T08:55:34.763Z,99.90
2022-10-31T08:58:02.367Z,99.90
2022-10-31T09:00:30.697Z,99.90
2022-10-31T09:02:58.113Z,99.90
2022-10-31T09:05:25.741Z,99.90
2022-10-31T09:07:55.843Z,99.90
2022-10-31T09:10:22.790Z,99.90
2022-10-31T09:12:55.905Z,98.70
2022-10-31T09:15:22.821Z,99.90
2022-10-31T09:17:51.729Z,77.60
2022-10-31T09:20:19.080Z,68.30
2022-10-31T09:22:46.342Z,65.10
2022-10-31T09:25:13.958Z,57.70
2022-10-31T09:27:41.130Z,57.30
2022-10-31T09:30:09.223Z,67.50
2022-10-31T09:32:36.384Z,71.10
2022-10-31T09:35:05.214Z,69.10
2022-10-31T09:37:32.425Z,72.30
2022-10-31T09:39:59.310Z,64.80
2022-10-31T09:42:44.649Z,60.40
2022-10-31T09:45:17.214Z,54.10
2022-10-31T09:48:02.608Z,52.00
2022-10-31T09:50:36.903Z,45.10
2022-10-31T09:53:11.975Z,36.90
2022-10-31T09:55:43.459Z,28.10
2022-10-31T09:58:17.675Z,20.60
2022-10-31T10:00:44.975Z,15.60
2022-10-31T10:03:20.805Z,2.20
2022-10-31T10:05:56.029Z,1.00
2022-10-31T10:08:28.056Z,1.00
2022-10-31T10:11:01.276Z,1.00
2022-10-31T10:13:41.361Z,1.00
2022-10-31T10:16:17.517Z,1.00
2022-10-31T10:18:56.095Z,1.00
2022-10-31T10:21:33.684Z,1.00
2022-10-31T10:24:11.450Z,1.00
2022-10-31T10:26:41.532Z,1.00
2022-10-31T10:29:24.189Z,1.00
2022-10-31T10:31:55.001Z,1.00
2022-10-31T10:34:26.965Z,1.00
2022-10-31T10:36:59.298Z,1.00
2022-10-31T10:39:31.847Z,1.00
2022-10-31T10:42:19.419Z,1.00
2022-10-31T10:45:07.433Z,1.00
2022-10-31T10:47:42.397Z,1.00
2022-10-31T10:50:15.711Z,1.00
2022-10-31T10:52:51.278Z,1.00
2022-10-31T10:55:27.227Z,1.00
2022-10-31T10:57:58.347Z,1.00
2022-10-31T11:00:28.642Z,1.00
2022-10-31T11:02:56.714Z,1.00
2022-10-31T11:05:29.210Z,1.00
2022-10-31T11:07:57.599Z,1.00
2022-10-31T11:10:24.996Z,1.00
2022-10-31T11:13:22.460Z,1.00
2022-10-31T11:15:58.379Z,1.00
2022-10-31T11:18:27.699Z,1.00
2022-10-31T11:20:56.527Z,1.00
2022-10-31T11:23:27.321Z,1.00
2022-10-31T11:25:57.067Z,1.00
2022-10-31T11:28:24.380Z,1.00
2022-10-31T11:30:55.658Z,1.00
2022-10-31T11:33:27.874Z,1.00
2022-10-31T11:35:58.098Z,1.00
2022-10-31T11:38:35.005Z,1.00
2022-10-31T11:41:11.037Z,1.00
2022-10-31T11:43:38.421Z,1.00
2022-10-31T11:46:11.017Z,1.00
2022-10-31T11:48:38.260Z,1.00
2022-10-31T11:51:06.083Z,1.00
2022-10-31T11:53:35.628Z,1.00
2022-10-31T11:56:06.116Z,1.00
2022-10-31T11:58:33.216Z,1.00
2022-10-31T12:01:00.149Z,1.00
2022-10-31T12:03:50.208Z,1.00
2022-10-31T12:06:21.890Z,1.00
2022-10-31T12:08:50.571Z,1.00
2022-10-31T12:11:39.064Z,1.00
2022-10-31T12:14:26.595Z,1.00
2022-10-31T12:16:59.349Z,1.00
2022-10-31T12:19:37.095Z,1.00
2022-10-31T12:22:11.943Z,1.00
2022-10-31T12:25:05.039Z,1.00
2022-10-31T12:27:42.250Z,1.00
2022-10-31T12:30:20.079Z,1.00
2022-10-31T12:33:12.541Z,1.00
2022-10-31T12:35:51.041Z,1.00
2022-10-31T12:38:43.795Z,1.00
2022-10-31T12:41:30.886Z,1.00
2022-10-31T12:44:07.120Z,1.00
2022-10-31T12:46:57.753Z,1.00
2022-10-31T12:49:43.297Z,1.00
2022-10-31T12:52:32.580Z,1.00
2022-10-31T12:55:12.204Z,1.00
2022-10-31T12:57:45.938Z,1.00
2022-10-31T13:00:16.909Z,1.00
2022-10-31T13:02:50.298Z,1.00
2022-10-31T13:05:23.074Z,1.00
2022-10-31T13:07:55.728Z,1.00
2022-10-31T13:10:26.631Z,1.00
2022-10-31T13:13:02.296Z,1.00
2022-10-31T13:15:33.906Z,1.00
2022-10-31T13:18:04.380Z,1.00
2022-10-31T13:20:34.555Z,1.00
2022-10-31T13:23:48.544Z,1.00
2022-10-31T13:26:11.061Z,1.00
2022-10-31T13:28:45.881Z,1.00
2022-10-31T13:31:13.412Z,1.00
2022-10-31T13:33:45.237Z,1.00
2022-10-31T13:36:25.046Z,1.00
2022-10-31T13:38:55.908Z,1.00
2022-10-31T13:41:46.783Z,1.00
2022-10-31T13:44:19.969Z,1.00
2022-10-31T13:46:47.511Z,1.00
2022-10-31T13:49:41.820Z,1.00
2022-10-31T13:52:17.279Z,1.00
2022-10-31T13:54:46.084Z,1.00
2022-10-31T13:57:23.300Z,1.00
2022-10-31T13:59:54.737Z,1.00
2022-10-31T14:02:28.100Z,1.00
2022-10-31T14:04:59.849Z,1.00
2022-10-31T14:07:29.003Z,1.00
2022-10-31T14:09:59.869Z,1.00
2022-10-31T14:12:31.355Z,1.00
2022-10-31T14:15:04.255Z,1.00
2022-10-31T14:17:39.697Z,1.00
2022-10-31T14:20:26.816Z,1.00
2022-10-31T14:22:53.851Z,1.00
2022-10-31T14:25:32.415Z,1.00
2022-10-31T14:28:01.435Z,1.00
2022-10-31T14:30:31.467Z,1.00
2022-10-31T14:33:01.980Z,1.00
2022-10-31T14:35:47.722Z,1.00
2022-10-31T14:38:29.927Z,1.00
2022-10-31T14:41:33.178Z,1.00
2022-10-31T14:44:25.035Z,1.00
2022-10-31T14:47:03.173Z,1.00
2022-10-31T14:49:43.318Z,1.00
2022-10-31T14:52:14.396Z,1.00
2022-10-31T14:54:44.948Z,1.00
2022-10-31T14:57:19.561Z,1.00
2022-10-31T14:59:50.603Z,1.00
2022-10-31T15:02:25.947Z,1.00
2022-10-31T15:04:55.000Z,1.00
2022-10-31T15:07:25.055Z,1.00
2022-10-31T15:09:59.608Z,1.00
2022-10-31T15:12:29.522Z,1.00
2022-10-31T15:14:57.203Z,1.00
2022-10-31T15:17:27.284Z,1.00
2022-10-31T15:19:54.580Z,1.00
2022-10-31T15:22:25.182Z,1.00
2022-10-31T15:24:57.132Z,1.00
2022-10-31T15:27:25.771Z,1.00
2022-10-31T15:29:55.827Z,1.00
2022-10-31T15:32:26.769Z,1.00
2022-10-31T15:34:55.215Z,1.00
2022-10-31T15:37:25.789Z,1.00
2022-10-31T15:39:53.615Z,1.00
2022-10-31T15:42:24.788Z,1.00
2022-10-31T15:44:58.785Z,1.00
2022-10-31T15:47:28.190Z,1.00
2022-10-31T15:49:56.759Z,1.00
2022-10-31T15:52:31.891Z,1.00
2022-10-31T15:55:01.709Z,1.00
2022-10-31T15:57:28.798Z,1.00
2022-10-31T15:59:56.412Z,1.00
2022-10-31T16:02:25.685Z,1.00
2022-10-31T16:04:57.377Z,1.00
2022-10-31T16:07:25.359Z,1.00
2022-10-31T16:09:55.707Z,1.00
2022-10-31T16:12:24.599Z,1.00
2022-10-31T16:14:53.428Z,3.10
2022-10-31T16:17:22.820Z,7.00
2022-10-31T16:19:56.057Z,11.80
2022-10-31T16:22:27.738Z,16.90
2022-10-31T16:25:00.091Z,20.90
2022-10-31T16:27:30.032Z,29.10
2022-10-31T16:29:58.297Z,35.50
2022-10-31T16:32:30.915Z,39.80
2022-10-31T16:35:18.909Z,49.90
2022-10-31T16:37:46.221Z,54.80
2022-10-31T16:40:14.255Z,59.00
2022-10-31T16:42:42.008Z,66.00
2022-10-31T16:45:15.662Z,75.10
2022-10-31T16:47:42.993Z,76.70
2022-10-31T16:50:16.846Z,77.40
2022-10-31T16:53:08.218Z,83.20
2022-10-31T16:55:35.843Z,89.20
2022-10-31T16:58:03.828Z,95.50
2022-10-31T17:00:31.783Z,99.90
2022-10-31T17:02:59.118Z,99.90
2022-10-31T17:05:30.669Z,99.90
2022-10-31T17:07:58.126Z,99.90
2022-10-31T17:10:26.146Z,99.90
2022-10-31T17:12:53.665Z,99.90
2022-10-31T17:15:22.623Z,99.90
2022-10-31T17:17:49.570Z,99.90
2022-10-31T17:20:20.438Z,99.90
2022-10-31T17:22:48.720Z,99.90
2022-10-31T17:25:18.233Z,99.90
2022-10-31T17:27:47.410Z,99.90
2022-10-31T17:30:15.238Z,99.90
2022-10-31T17:32:43.184Z,99.90
2022-10-31T17:35:11.116Z,99.90
2022-10-31T17:37:38.229Z,99.90
2022-10-31T17:40:07.861Z,99.90
2022-10-31T17:42:34.774Z,99.90
2022-10-31T17:45:01.787Z,99.90
2022-10-31T17:47:29.008Z,99.90
2022-10-31T17:49:55.839Z,99.90
2022-10-31T17:52:22.907Z,99.90
2022-10-31T17:54:49.909Z,99.90
2022-10-31T17:57:18.821Z,99.90
2022-10-31T17:59:45.666Z,99.90
2022-10-31T18:02:12.888Z,99.90
2022-10-31T18:04:42.708Z,99.90
2022-10-31T18:07:09.608Z,99.90
2022-10-31T18:09:36.476Z,99.90
2022-10-31T18:12:03.739Z,99.90
2022-10-31T18:14:32.336Z,99.90
2022-10-31T18:16:59.591Z,99.90
2022-10-31T18:19:26.506Z,99.90
2022-10-31T18:21:53.758Z,99.90
2022-10-31T18:24:20.635Z,99.90
2022-10-31T18:26:48.219Z,99.90
2022-10-31T18:29:15.187Z,99.90
2022-10-31T18:31:44.260Z,99.90
2022-10-31T18:34:11.086Z,99.90
2022-10-31T18:36:38.013Z,99.90
2022-10-31T18:39:04.989Z,99.90
2022-10-31T18:41:32.313Z,99.90
2022-10-31T18:44:02.285Z,99.90
2022-10-31T18:46:29.622Z,99.90
2022-10-31T18:48:57.933Z,99.90
2022-10-31T18:51:25.215Z,99.90
2022-10-31T18:53:53.015Z,99.90
2022-10-31T18:56:21.377Z,99.90
2022-10-31T18:58:48.307Z,99.90
2022-10-31T19:01:16.856Z,99.90
2022-10-31T19:03:44.103Z,99.90
2022-10-31T19:06:12.677Z,99.90
2022-10-31T19:08:39.918Z,99.90
2022-10-31T19:11:08.454Z,99.90
2022-10-31T19:13:36.180Z,99.90
2022-10-31T19:16:07.642Z,99.90
2022-10-31T19:18:34.645Z,99.90
2022-10-31T19:21:06.154Z,99.90
2022-10-31T19:23:34.459Z,99.90
2022-10-31T19:26:02.619Z,99.90
2022-10-31T19:28:30.876Z,99.90
2022-10-31T19:30:58.205Z,99.90
2022-10-31T19:33:34.898Z,99.90
2022-10-31T19:36:08.224Z,99.90
2022-10-31T19:38:37.718Z,99.90
2022-10-31T19:41:07.293Z,99.90
2022-10-31T19:43:34.330Z,99.90
2022-10-31T19:46:03.559Z,99.90
2022-10-31T19:48:31.152Z,99.90
2022-10-31T19:51:01.944Z,99.90
2022-10-31T19:53:30.324Z,99.90
2022-10-31T19:55:58.965Z,99.90
2022-10-31T19:58:26.410Z,99.90
2022-10-31T20:00:54.469Z,99.90
2022-10-31T20:03:22.685Z,99.90
2022-10-31T20:05:50.697Z,99.90
2022-10-31T20:08:19.327Z,99.90
2022-10-31T20:10:54.496Z,99.90
2022-10-31T20:13:23.758Z,99.90
2022-10-31T20:15:51.146Z,99.90
2022-10-31T20:18:18.731Z,99.90
2022-10-31T20:20:45.988Z,99.90
2022-10-31T20:23:12.854Z,99.90
2022-10-31T20:25:47.433Z,99.90
2022-10-31T20:28:14.534Z,99.90
2022-10-31T20:30:43.651Z,99.90
2022-10-31T20:33:10.506Z,99.90
2022-10-31T20:35:37.909Z,99.90
2022-10-31T20:38:05.241Z,99.90
2022-10-31T20:40:32.631Z,99.90
2022-10-31T20:43:00.435Z,99.90
2022-10-31T20:45:27.369Z,99.90
2022-10-31T20:47:56.027Z,99.90
2022-10-31T20:50:23.861Z,99.90
2022-10-31T20:52:50.932Z,99.90
2022-10-31T20:55:18.422Z,99.90
2022-10-31T20:57:45.264Z,99.90
2022-10-31T21:00:13.237Z,99.90
2022-10-31T21:02:41.798Z,99.90
2022-10-31T21:05:11.557Z,99.90
2022-10-31T21:07:39.398Z,99.90
2022-10-31T21:10:15.191Z,99.90
2022-10-31T21:12:43.198Z,99.90
2022-10-31T21:15:11.851Z,99.90
2022-10-31T21:17:38.646Z,99.90
2022-10-31T21:20:07.592Z,99.90
2022-10-31T21:22:36.181Z,99.90
2022-10-31T21:25:03.578Z,99.90
2022-10-31T21:27:31.098Z,99.90
2022-10-31T21:29:58.335Z,99.90
2022-10-31T21:32:25.296Z,99.90
2022-10-31T21:34:52.356Z,99.90
2022-10-31T21:37:19.270Z,99.90
2022-10-31T21:39:50.821Z,99.90
2022-10-31T21:42:21.357Z,99.90
2022-10-31T21:44:49.128Z,99.90
2022-10-31T21:47:16.180Z,99.90
2022-10-31T21:49:43.496Z,99.90
2022-10-31T21:52:10.668Z,99.90
2022-10-31T21:54:37.923Z,99.90
2022-10-31T21:57:06.263Z,99.90
2022-10-31T21:59:33.180Z,99.90
2022-10-31T22:02:00.905Z,99.90
2022-10-31T22:04:29.057Z,99.90
2022-10-31T22:06:55.900Z,99.90
2022-10-31T22:09:23.687Z,99.90
2022-10-31T22:11:51.023Z,99.90
2022-10-31T22:14:19.591Z,99.90
2022-10-31T22:16:46.485Z,99.90
2022-10-31T22:19:14.918Z,99.90
2022-10-31T22:21:43.255Z,99.90
2022-10-31T22:24:10.789Z,99.90
2022-10-31T22:26:38.366Z,99.90
2022-10-31T22:29:06.803Z,99.90
2022-10-31T22:31:38.627Z,99.90
2022-10-31T22:34:05.494Z,99.90
2022-10-31T22:36:32.658Z,99.90
2022-10-31T22:39:00.022Z,99.90
2022-10-31T22:41:28.585Z,99.90
2022-10-31T22:43:56.362Z,99.90
2022-10-31T22:46:25.030Z,99.90
2022-10-31T22:48:55.242Z,99.90
2022-10-31T22:51:23.942Z,99.90
2022-10-31T22:53:51.484Z,99.90
2022-10-31T22:56:20.622Z,99.90
2022-10-31T22:58:48.290Z,99.90
2022-10-31T23:01:17.249Z,99.90
2022-10-31T23:03:44.895Z,99.90
2022-10-31T23:06:15.033Z,99.90
2022-10-31T23:08:42.885Z,99.90
2022-10-31T23:11:17.287Z,99.90
2022-10-31T23:14:03.959Z,99.90
2022-10-31T23:16:31.168Z,99.90
2022-10-31T23:18:58.256Z,99.90
2022-10-31T23:21:44.156Z,99.90
2022-10-31T23:24:12.020Z,99.90
2022-10-31T23:26:57.655Z,99.90
2022-10-31T23:29:25.018Z,99.90
2022-10-31T23:31:54.479Z,99.90
2022-10-31T23:34:22.154Z,99.90
2022-10-31T23:36:52.190Z,99.90
2022-10-31T23:39:21.350Z,99.90
2022-10-31T23:41:51.767Z,99.90
2022-10-31T23:44:19.285Z,99.90
2022-10-31T23:46:46.539Z,99.90
2022-10-31T23:49:13.574Z,99.90
2022-10-31T23:51:41.266Z,99.90
2022-10-31T23:54:09.970Z,99.90
2022-10-31T23:56:36.966Z,99.90
2022-10-31T23:59:04.476Z,99.90
